createdAt,value
2017-05-03T00:01:41.726Z,9.20
2017-05-03T00:04:08.026Z,8.99
2017-05-03T00:06:34.568Z,8.94
2017-05-03T00:09:00.884Z,9.20
2017-05-03T00:11:27.220Z,9.52
2017-05-03T00:13:53.540Z,9.23
2017-05-03T00:16:19.862Z,9.07
2017-05-03T00:18:46.173Z,9.23
2017-05-03T00:21:12.487Z,9.21
2017-05-03T00:23:38.796Z,9.27
2017-05-03T00:26:05.126Z,9.30
2017-05-03T00:28:31.457Z,9.25
2017-05-03T00:30:57.821Z,9.30
2017-05-03T00:33:24.203Z,9.17
2017-05-03T00:35:50.498Z,9.31
2017-05-03T00:38:16.816Z,9.13
2017-05-03T00:40:43.126Z,8.99
2017-05-03T00:43:09.458Z,9.16
2017-05-03T00:45:35.771Z,9.05
2017-05-03T00:48:02.090Z,9.06
2017-05-03T00:50:28.426Z,9.16
2017-05-03T00:52:54.734Z,9.09
2017-05-03T00:55:21.051Z,8.84
2017-05-03T00:57:47.349Z,8.88
2017-05-03T01:00:13.705Z,9.01
2017-05-03T01:02:40.024Z,9.01
2017-05-03T01:05:06.344Z,8.89
2017-05-03T01:07:32.689Z,8.99
2017-05-03T01:09:59.015Z,9.02
2017-05-03T01:12:25.356Z,9.11
2017-05-03T01:14:51.701Z,9.04
2017-05-03T01:17:18.096Z,9.07
2017-05-03T01:19:44.450Z,9.11
2017-05-03T01:22:11.066Z,9.08
2017-05-03T01:24:37.424Z,9.01
2017-05-03T01:27:03.777Z,9.00
2017-05-03T01:29:30.115Z,9.13
2017-05-03T01:31:56.540Z,9.11
2017-05-03T01:34:22.918Z,9.06
2017-05-03T01:36:49.240Z,9.16
2017-05-03T01:39:15.575Z,9.28
2017-05-03T01:41:42.060Z,9.18
2017-05-03T01:44:08.417Z,9.10
2017-05-03T01:46:34.756Z,9.20
2017-05-03T01:49:01.100Z,9.35
2017-05-03T01:51:27.547Z,9.24
2017-05-03T01:53:53.855Z,9.28
2017-05-03T01:56:20.170Z,9.08
2017-05-03T01:58:46.496Z,9.28
2017-05-03T02:01:12.966Z,9.04
2017-05-03T02:03:39.277Z,9.01
2017-05-03T02:06:05.721Z,9.22
2017-05-03T02:08:32.036Z,9.24
2017-05-03T02:10:58.381Z,9.24
2017-05-03T02:13:24.734Z,8.96
2017-05-03T02:15:51.063Z,9.27
2017-05-03T02:18:17.381Z,9.15
2017-05-03T02:20:43.677Z,9.19
2017-05-03T02:23:09.997Z,9.12
2017-05-03T02:25:36.313Z,9.15
2017-05-03T02:28:02.764Z,9.12
2017-05-03T02:30:29.062Z,9.19
2017-05-03T02:32:55.425Z,9.25
2017-05-03T02:35:21.834Z,9.41
2017-05-03T02:37:48.506Z,9.23
2017-05-03T02:40:14.825Z,9.13
2017-05-03T02:42:41.144Z,9.14
2017-05-03T02:45:07.463Z,9.22
2017-05-03T02:47:33.956Z,9.09
2017-05-03T02:50:00.270Z,9.24
2017-05-03T02:52:26.576Z,9.33
2017-05-03T02:54:52.900Z,9.32
2017-05-03T02:57:19.372Z,9.38
2017-05-03T02:59:45.682Z,9.09
2017-05-03T03:02:12.021Z,9.05
2017-05-03T03:04:38.354Z,9.22
2017-05-03T03:07:04.864Z,9.12
2017-05-03T03:09:31.175Z,9.22
2017-05-03T03:11:57.831Z,9.13
2017-05-03T03:14:24.146Z,9.21
2017-05-03T03:16:50.510Z,9.04
2017-05-03T03:19:16.809Z,9.19
2017-05-03T03:21:43.122Z,9.10
2017-05-03T03:24:09.449Z,9.16
2017-05-03T03:26:35.758Z,9.31
2017-05-03T03:29:02.256Z,9.61
2017-05-03T03:31:28.579Z,9.85
2017-05-03T03:33:54.947Z,9.96
2017-05-03T03:36:21.261Z,9.92
2017-05-03T03:38:47.601Z,9.99
2017-05-03T03:41:13.904Z,9.70
2017-05-03T03:43:40.221Z,9.37
2017-05-03T03:46:06.548Z,9.22
2017-05-03T03:48:32.885Z,9.18
2017-05-03T03:50:59.194Z,9.52
2017-05-03T03:53:25.518Z,9.37
2017-05-03T03:55:52.015Z,9.75
2017-05-03T03:58:18.452Z,9.33
2017-05-03T04:00:44.787Z,9.36
2017-05-03T04:03:11.167Z,9.53
2017-05-03T04:05:37.487Z,9.62
2017-05-03T04:08:03.841Z,9.66
2017-05-03T04:13:05.376Z,9.66
2017-05-03T04:15:31.690Z,9.90
2017-05-03T04:17:57.994Z,9.80
2017-05-03T04:20:24.313Z,9.42
2017-05-03T04:22:50.646Z,9.72
2017-05-03T04:25:16.981Z,9.93
2017-05-03T04:27:43.307Z,9.94
2017-05-03T04:30:09.761Z,10.05
2017-05-03T04:32:36.120Z,9.97
2017-05-03T04:35:02.427Z,9.63
2017-05-03T04:37:28.772Z,9.89
2017-05-03T04:39:55.084Z,9.94
2017-05-03T04:42:21.478Z,9.95
2017-05-03T04:44:47.805Z,9.79
2017-05-03T04:47:14.263Z,9.86
2017-05-03T04:49:40.601Z,9.82
2017-05-03T04:52:06.957Z,9.94
2017-05-03T04:54:33.268Z,9.92
2017-05-03T04:56:59.772Z,9.91
2017-05-03T04:59:26.086Z,9.99
2017-05-03T05:01:52.433Z,10.03
2017-05-03T05:04:18.724Z,9.96
2017-05-03T05:06:45.076Z,9.97
2017-05-03T05:09:11.402Z,10.05
2017-05-03T05:11:37.724Z,9.88
2017-05-03T05:14:04.066Z,10.01
2017-05-03T05:16:30.394Z,9.85
2017-05-03T05:18:56.733Z,10.12
2017-05-03T05:21:23.023Z,9.84
2017-05-03T05:23:49.322Z,10.09
2017-05-03T05:26:15.697Z,10.20
2017-05-03T05:28:42.016Z,10.05
2017-05-03T05:31:08.340Z,10.15
2017-05-03T05:33:34.684Z,10.07
2017-05-03T05:36:01.011Z,10.00
2017-05-03T05:38:27.483Z,9.98
2017-05-03T05:40:53.813Z,9.94
2017-05-03T05:43:20.157Z,9.92
2017-05-03T05:45:46.470Z,10.05
2017-05-03T05:48:12.805Z,10.08
2017-05-03T05:50:39.126Z,10.11
2017-05-03T05:53:05.448Z,10.13
2017-05-03T05:55:31.783Z,9.98
2017-05-03T05:57:58.490Z,9.93
2017-05-03T06:00:24.815Z,9.98
2017-05-03T06:02:51.437Z,9.93
2017-05-03T06:05:17.765Z,10.13
2017-05-03T06:07:44.080Z,9.96
2017-05-03T06:10:10.397Z,9.86
2017-05-03T06:12:37.120Z,9.98
2017-05-03T06:15:03.457Z,10.16
2017-05-03T06:17:29.772Z,10.07
2017-05-03T06:19:56.091Z,10.20
2017-05-03T06:22:22.443Z,10.08
2017-05-03T06:24:48.788Z,9.95
2017-05-03T06:27:15.124Z,10.34
2017-05-03T06:29:41.450Z,10.07
2017-05-03T06:32:07.774Z,10.00
2017-05-03T06:34:34.101Z,10.28
2017-05-03T06:37:00.445Z,9.98
2017-05-03T06:39:26.853Z,10.14
2017-05-03T06:41:53.270Z,10.37
2017-05-03T06:44:19.618Z,10.26
2017-05-03T06:46:45.945Z,10.22
2017-05-03T06:49:12.272Z,10.62
2017-05-03T06:51:38.617Z,10.66
2017-05-03T06:54:04.932Z,10.92
2017-05-03T06:56:31.258Z,10.95
2017-05-03T06:58:57.580Z,10.88
2017-05-03T07:01:23.927Z,10.70
2017-05-03T07:03:50.258Z,10.89
2017-05-03T07:06:16.571Z,10.86
2017-05-03T07:08:42.904Z,10.74
2017-05-03T07:11:09.248Z,10.88
2017-05-03T07:13:35.553Z,10.88
2017-05-03T07:16:02.382Z,10.69
2017-05-03T07:18:28.694Z,10.85
2017-05-03T07:20:55.002Z,10.75
2017-05-03T07:23:21.329Z,10.91
2017-05-03T07:25:47.642Z,10.90
2017-05-03T07:28:13.976Z,11.11
2017-05-03T07:30:40.313Z,10.94
2017-05-03T07:33:06.648Z,10.75
2017-05-03T07:35:32.997Z,11.13
2017-05-03T07:37:59.335Z,11.11
2017-05-03T07:40:25.663Z,10.71
2017-05-03T07:42:51.996Z,11.26
2017-05-03T07:45:18.440Z,11.37
2017-05-03T07:47:44.762Z,11.25
2017-05-03T07:50:11.101Z,11.23
2017-05-03T07:52:37.404Z,11.57
2017-05-03T07:55:03.757Z,11.25
2017-05-03T07:57:30.093Z,11.26
2017-05-03T07:59:56.418Z,11.29
2017-05-03T08:02:22.773Z,11.36
2017-05-03T08:04:49.218Z,11.60
2017-05-03T08:07:15.582Z,11.81
2017-05-03T08:09:41.955Z,12.49
2017-05-03T08:12:08.289Z,12.50
2017-05-03T08:14:34.692Z,12.71
2017-05-03T08:17:01.077Z,12.43
2017-05-03T08:19:27.426Z,11.95
2017-05-03T08:21:53.798Z,12.18
2017-05-03T08:24:20.146Z,11.73
2017-05-03T08:26:46.469Z,11.83
2017-05-03T08:29:12.835Z,12.05
2017-05-03T08:31:39.257Z,12.27
2017-05-03T08:34:05.583Z,12.74
2017-05-03T08:36:31.927Z,12.62
2017-05-03T08:38:58.304Z,12.86
2017-05-03T08:41:24.673Z,13.50
2017-05-03T08:43:51.029Z,13.10
2017-05-03T08:46:17.405Z,12.64
2017-05-03T08:48:43.793Z,12.96
2017-05-03T08:51:10.233Z,13.42
2017-05-03T08:53:36.559Z,13.75
2017-05-03T08:56:02.936Z,13.58
2017-05-03T08:58:29.283Z,13.76
2017-05-03T09:00:55.657Z,13.94
2017-05-03T09:03:22.088Z,13.83
2017-05-03T09:05:53.925Z,13.42
2017-05-03T09:08:20.407Z,13.37
2017-05-03T09:10:52.320Z,12.97
2017-05-03T09:13:18.829Z,12.97
2017-05-03T09:15:45.409Z,12.68
2017-05-03T09:18:11.902Z,13.08
2017-05-03T09:20:38.237Z,13.03
2017-05-03T09:23:09.970Z,13.43
2017-05-03T09:25:36.421Z,13.45
2017-05-03T09:28:02.769Z,13.40
2017-05-03T09:30:29.218Z,13.40
2017-05-03T09:32:55.714Z,13.59
2017-05-03T09:35:22.662Z,13.46
2017-05-03T09:37:49.058Z,13.50
2017-05-03T09:40:20.662Z,13.57
2017-05-03T09:42:46.998Z,13.62
2017-05-03T09:45:13.900Z,13.53
2017-05-03T09:47:52.405Z,13.75
2017-05-03T09:50:19.277Z,13.63
2017-05-03T09:52:46.542Z,13.59
2017-05-03T09:55:13.057Z,13.73
2017-05-03T09:57:42.574Z,13.73
2017-05-03T10:00:14.964Z,13.61
2017-05-03T10:02:41.541Z,13.70
2017-05-03T10:05:08.175Z,13.89
2017-05-03T10:07:39.943Z,13.89
2017-05-03T10:10:09.831Z,13.67
2017-05-03T10:12:36.316Z,13.85
2017-05-03T10:15:09.784Z,13.97
2017-05-03T10:17:36.466Z,13.66
2017-05-03T10:20:08.326Z,13.82
2017-05-03T10:25:06.886Z,13.66
2017-05-03T10:27:33.327Z,13.59
2017-05-03T10:29:59.775Z,13.49
2017-05-03T10:32:31.561Z,13.42
2017-05-03T10:34:57.898Z,13.15
2017-05-03T10:37:27.190Z,13.13
2017-05-03T10:39:58.949Z,13.43
2017-05-03T10:42:27.084Z,13.58
2017-05-03T10:44:53.486Z,13.55
2017-05-03T10:47:19.941Z,13.73
2017-05-03T10:49:51.528Z,14.06
2017-05-03T10:52:18.307Z,14.24
2017-05-03T10:54:46.402Z,14.16
2017-05-03T10:57:12.803Z,14.27
2017-05-03T10:59:39.508Z,14.36
2017-05-03T11:02:06.220Z,14.40
2017-05-03T11:04:32.710Z,14.63
2017-05-03T11:07:04.293Z,14.85
2017-05-03T11:09:36.237Z,15.10
2017-05-03T11:12:02.639Z,15.30
2017-05-03T11:14:29.363Z,15.41
2017-05-03T11:16:55.706Z,15.15
2017-05-03T11:19:22.372Z,15.15
2017-05-03T11:21:48.695Z,15.28
2017-05-03T11:24:22.437Z,15.10
2017-05-03T11:26:52.873Z,15.15
2017-05-03T11:29:19.529Z,15.00
2017-05-03T11:31:45.852Z,14.79
2017-05-03T11:34:17.882Z,15.05
2017-05-03T11:36:44.229Z,15.07
2017-05-03T11:39:10.998Z,15.15
2017-05-03T11:41:37.325Z,15.20
2017-05-03T11:44:03.772Z,15.00
2017-05-03T11:46:30.154Z,15.20
2017-05-03T11:49:02.724Z,15.19
2017-05-03T11:51:34.368Z,15.10
2017-05-03T11:54:01.092Z,15.14
2017-05-03T11:56:32.672Z,15.04
2017-05-03T11:58:59.108Z,15.26
2017-05-03T12:01:30.591Z,15.33
2017-05-03T12:03:57.795Z,15.34
2017-05-03T12:06:28.164Z,15.22
2017-05-03T12:08:59.006Z,15.15
2017-05-03T12:11:25.905Z,15.26
2017-05-03T12:13:52.550Z,15.37
2017-05-03T12:16:24.137Z,15.45
2017-05-03T12:18:50.790Z,15.43
2017-05-03T12:21:17.370Z,15.26
2017-05-03T12:23:43.758Z,15.41
2017-05-03T12:26:10.205Z,15.57
2017-05-03T12:28:36.616Z,15.79
2017-05-03T12:31:08.108Z,15.67
2017-05-03T12:33:39.936Z,16.04
2017-05-03T12:36:07.260Z,16.17
2017-05-03T12:38:42.023Z,16.23
2017-05-03T12:41:14.046Z,16.08
2017-05-03T12:43:41.510Z,16.55
2017-05-03T12:46:09.299Z,16.56
2017-05-03T12:48:40.968Z,16.44
2017-05-03T12:51:14.730Z,16.65
2017-05-03T12:53:41.973Z,16.89
2017-05-03T12:56:08.350Z,16.98
2017-05-03T12:58:38.082Z,16.85
2017-05-03T13:01:04.765Z,16.51
2017-05-03T13:03:38.533Z,16.78
2017-05-03T13:06:05.110Z,16.63
2017-05-03T13:08:32.305Z,16.49
2017-05-03T13:11:03.975Z,16.45
2017-05-03T13:13:30.711Z,16.58
2017-05-03T13:15:58.295Z,16.73
2017-05-03T13:18:29.740Z,16.42
2017-05-03T13:20:56.132Z,16.25
2017-05-03T13:23:22.446Z,16.33
2017-05-03T13:25:48.963Z,16.18
2017-05-03T13:28:15.313Z,16.12
2017-05-03T13:30:41.760Z,16.06
2017-05-03T13:33:08.509Z,15.99
2017-05-03T13:35:34.883Z,16.05
2017-05-03T13:38:01.225Z,16.08
2017-05-03T13:40:27.564Z,16.18
2017-05-03T13:42:54.094Z,16.06
2017-05-03T13:45:20.428Z,16.17
2017-05-03T13:47:47.024Z,16.09
2017-05-03T13:50:13.336Z,16.04
2017-05-03T13:52:39.676Z,16.24
2017-05-03T13:55:06.012Z,16.40
2017-05-03T13:57:36.888Z,16.19
2017-05-03T14:00:03.269Z,16.18
2017-05-03T14:02:29.585Z,16.07
2017-05-03T14:04:56.013Z,16.16
2017-05-03T14:07:22.396Z,15.96
2017-05-03T14:09:48.714Z,15.91
2017-05-03T14:12:15.039Z,15.97
2017-05-03T14:14:41.359Z,15.77
2017-05-03T14:17:07.883Z,15.36
2017-05-03T14:19:34.193Z,15.55
2017-05-03T14:22:00.508Z,15.52
2017-05-03T14:24:26.839Z,15.69
2017-05-03T14:26:53.321Z,15.58
2017-05-03T14:29:19.651Z,15.64
2017-05-03T14:31:45.965Z,15.60
2017-05-03T14:34:12.319Z,15.39
2017-05-03T14:36:38.813Z,15.38
2017-05-03T14:39:05.167Z,15.39
2017-05-03T14:41:31.517Z,15.03
2017-05-03T14:43:57.834Z,15.16
2017-05-03T14:46:24.133Z,14.96
2017-05-03T14:48:50.455Z,15.05
2017-05-03T14:51:16.790Z,14.84
2017-05-03T14:53:43.120Z,14.89
2017-05-03T14:56:09.451Z,15.02
2017-05-03T14:58:35.803Z,14.87
2017-05-03T15:01:02.122Z,14.92
2017-05-03T15:03:28.452Z,14.63
2017-05-03T15:05:54.787Z,14.85
2017-05-03T15:08:21.095Z,14.76
2017-05-03T15:10:47.441Z,14.85
2017-05-03T15:13:13.758Z,14.72
2017-05-03T15:15:40.116Z,14.69
2017-05-03T15:18:06.467Z,14.71
2017-05-03T15:20:32.801Z,14.60
2017-05-03T15:22:59.293Z,14.61
2017-05-03T15:25:25.614Z,14.60
2017-05-03T15:27:52.016Z,14.60
2017-05-03T15:30:18.347Z,14.48
2017-05-03T15:32:44.850Z,14.32
2017-05-03T15:35:11.163Z,14.07
2017-05-03T15:37:37.573Z,13.96
2017-05-03T15:40:03.935Z,13.65
2017-05-03T15:42:30.271Z,13.69
2017-05-03T15:44:56.624Z,13.56
2017-05-03T15:47:22.984Z,13.54
2017-05-03T15:49:49.294Z,13.36
2017-05-03T15:52:15.636Z,13.45
2017-05-03T15:54:41.992Z,13.23
2017-05-03T15:57:08.339Z,13.39
2017-05-03T15:59:34.878Z,13.42
2017-05-03T16:02:02.968Z,13.57
2017-05-03T16:04:29.369Z,13.43
2017-05-03T16:06:56.253Z,13.44
2017-05-03T16:09:23.055Z,13.28
2017-05-03T16:11:49.546Z,13.42
2017-05-03T16:14:16.331Z,13.51
2017-05-03T16:16:43.256Z,13.71
2017-05-03T16:19:09.811Z,13.39
2017-05-03T16:21:36.423Z,13.27
2017-05-03T16:24:02.761Z,13.30
2017-05-03T16:26:29.098Z,13.52
2017-05-03T16:28:56.438Z,13.32
2017-05-03T16:31:23.426Z,13.40
2017-05-03T16:33:49.889Z,13.15
2017-05-03T16:36:16.449Z,13.39
2017-05-03T16:38:43.001Z,13.39
2017-05-03T16:41:09.774Z,13.32
2017-05-03T16:43:36.119Z,13.35
2017-05-03T16:46:02.608Z,13.32
2017-05-03T16:48:29.571Z,13.31
2017-05-03T16:50:56.080Z,13.31
2017-05-03T16:53:22.590Z,13.28
2017-05-03T16:55:49.471Z,13.26
2017-05-03T16:58:16.243Z,13.20
2017-05-03T17:00:42.872Z,13.18
2017-05-03T17:03:10.003Z,13.17
2017-05-03T17:05:38.245Z,13.32
2017-05-03T17:08:05.266Z,13.15
2017-05-03T17:10:31.845Z,13.13
2017-05-03T17:12:58.341Z,13.14
2017-05-03T17:15:25.438Z,13.00
2017-05-03T17:17:51.801Z,13.00
2017-05-03T17:20:18.637Z,12.95
2017-05-03T17:22:45.949Z,13.10
2017-05-03T17:25:12.337Z,12.89
2017-05-03T17:27:39.308Z,12.85
2017-05-03T17:30:05.768Z,12.80
2017-05-03T17:32:32.330Z,12.87
2017-05-03T17:34:58.991Z,12.81
2017-05-03T17:37:25.391Z,12.73
2017-05-03T17:39:51.732Z,12.79
2017-05-03T17:42:18.123Z,12.70
2017-05-03T17:44:44.906Z,12.73
2017-05-03T17:47:11.700Z,12.90
2017-05-03T17:49:38.244Z,12.91
2017-05-03T17:52:04.740Z,12.88
2017-05-03T17:54:31.092Z,12.77
2017-05-03T17:56:57.482Z,12.56
2017-05-03T17:59:24.096Z,12.70
2017-05-03T18:01:50.670Z,12.80
2017-05-03T18:04:17.242Z,12.66
2017-05-03T18:06:44.013Z,12.46
2017-05-03T18:09:10.457Z,12.71
2017-05-03T18:11:36.947Z,12.64
2017-05-03T18:14:03.349Z,12.61
2017-05-03T18:16:31.008Z,12.64
2017-05-03T18:18:57.415Z,12.49
2017-05-03T18:21:23.757Z,12.49
2017-05-03T18:23:50.161Z,12.44
2017-05-03T18:26:17.482Z,12.63
2017-05-03T18:28:43.818Z,12.56
2017-05-03T18:31:10.175Z,12.50
2017-05-03T18:33:36.766Z,12.58
2017-05-03T18:36:03.137Z,12.37
2017-05-03T18:38:29.448Z,12.50
2017-05-03T18:40:55.819Z,12.49
2017-05-03T18:43:22.462Z,12.39
2017-05-03T18:45:48.797Z,12.33
2017-05-03T18:48:15.134Z,12.41
2017-05-03T18:50:41.617Z,12.38
2017-05-03T18:53:07.975Z,12.34
2017-05-03T18:55:34.356Z,12.45
2017-05-03T18:58:00.736Z,12.22
2017-05-03T19:00:27.276Z,12.20
2017-05-03T19:02:53.617Z,12.21
2017-05-03T19:05:20.221Z,12.14
2017-05-03T19:07:47.270Z,12.18
2017-05-03T19:10:14.283Z,12.19
2017-05-03T19:12:40.672Z,12.21
2017-05-03T19:15:07.020Z,11.98
2017-05-03T19:17:33.355Z,12.12
2017-05-03T19:20:00.574Z,12.14
2017-05-03T19:22:26.971Z,12.30
2017-05-03T19:24:53.325Z,12.07
2017-05-03T19:27:19.745Z,11.95
2017-05-03T19:29:46.361Z,11.97
2017-05-03T19:32:12.826Z,12.31
2017-05-03T19:34:39.227Z,12.18
2017-05-03T19:37:05.629Z,12.32
2017-05-03T19:39:32.243Z,11.95
2017-05-03T19:41:59.818Z,11.90
2017-05-03T19:44:26.706Z,11.77
2017-05-03T19:46:53.305Z,11.99
2017-05-03T19:49:19.651Z,11.84
2017-05-03T19:51:46.379Z,11.73
2017-05-03T19:54:12.734Z,11.76
2017-05-03T19:56:40.033Z,11.90
2017-05-03T19:59:06.594Z,11.69
2017-05-03T20:01:32.994Z,11.82
2017-05-03T20:03:59.440Z,11.89
2017-05-03T20:06:25.766Z,11.82
2017-05-03T20:08:52.104Z,11.72
2017-05-03T20:11:18.565Z,11.67
2017-05-03T20:13:45.750Z,12.08
2017-05-03T20:16:12.263Z,11.86
2017-05-03T20:18:38.710Z,11.95
2017-05-03T20:21:05.964Z,12.39
2017-05-03T20:23:32.356Z,12.41
2017-05-03T20:25:58.736Z,11.98
2017-05-03T20:28:25.835Z,12.32
2017-05-03T20:30:52.236Z,11.56
2017-05-03T20:33:18.653Z,12.14
2017-05-03T20:35:45.080Z,11.87
2017-05-03T20:38:11.461Z,11.69
2017-05-03T20:40:37.846Z,11.66
2017-05-03T20:43:04.198Z,11.80
2017-05-03T20:45:30.710Z,11.65
2017-05-03T20:47:57.043Z,11.47
2017-05-03T20:50:23.400Z,11.57
2017-05-03T20:52:49.733Z,11.88
2017-05-03T20:55:16.064Z,11.61
2017-05-03T20:57:43.391Z,11.63
2017-05-03T21:00:09.764Z,11.63
2017-05-03T21:02:36.378Z,11.75
2017-05-03T21:05:02.870Z,11.84
2017-05-03T21:07:29.319Z,12.11
2017-05-03T21:09:55.739Z,11.82
2017-05-03T21:12:22.097Z,11.72
2017-05-03T21:14:48.445Z,11.81
2017-05-03T21:17:14.866Z,11.54
2017-05-03T21:19:41.491Z,12.21
2017-05-03T21:22:07.849Z,12.23
2017-05-03T21:24:34.180Z,12.24
2017-05-03T21:27:00.573Z,11.50
2017-05-03T21:29:26.898Z,11.30
2017-05-03T21:31:53.979Z,11.78
2017-05-03T21:34:20.314Z,11.48
2017-05-03T21:36:46.909Z,11.39
2017-05-03T21:39:13.232Z,11.29
2017-05-03T21:41:39.596Z,11.41
2017-05-03T21:44:05.942Z,11.35
2017-05-03T21:46:32.245Z,11.44
2017-05-03T21:48:59.374Z,11.31
2017-05-03T21:51:26.757Z,11.58
2017-05-03T21:53:53.268Z,11.89
2017-05-03T21:56:19.659Z,12.04
2017-05-03T21:58:46.012Z,11.40
2017-05-03T22:01:12.364Z,11.10
2017-05-03T22:03:38.770Z,11.02
2017-05-03T22:06:05.678Z,11.16
2017-05-03T22:08:32.652Z,11.42
2017-05-03T22:11:01.017Z,11.37
2017-05-03T22:13:27.614Z,10.98
2017-05-03T22:15:53.908Z,11.05
2017-05-03T22:18:20.850Z,11.24
2017-05-03T22:20:47.358Z,11.26
2017-05-03T22:23:14.652Z,10.98
2017-05-03T22:25:43.102Z,11.05
2017-05-03T22:28:09.729Z,11.24
2017-05-03T22:30:36.065Z,11.47
2017-05-03T22:33:02.437Z,11.14
2017-05-03T22:35:28.772Z,11.43
2017-05-03T22:37:55.377Z,11.72
2017-05-03T22:40:21.772Z,11.41
2017-05-03T22:42:48.115Z,11.60
2017-05-03T22:45:16.512Z,11.35
2017-05-03T22:47:43.752Z,10.89
2017-05-03T22:50:10.275Z,11.10
2017-05-03T22:52:37.820Z,11.05
2017-05-03T22:55:04.258Z,11.06
2017-05-03T22:57:30.894Z,11.06
2017-05-03T22:59:57.244Z,11.29
2017-05-03T23:02:23.584Z,11.68
2017-05-03T23:04:50.210Z,11.71
2017-05-03T23:07:16.581Z,11.70
2017-05-03T23:09:42.937Z,11.41
2017-05-03T23:12:09.285Z,11.36
2017-05-03T23:14:35.745Z,11.55
2017-05-03T23:17:02.154Z,11.60
2017-05-03T23:19:28.485Z,11.68
2017-05-03T23:21:54.864Z,11.48
2017-05-03T23:24:21.330Z,11.30
2017-05-03T23:26:47.713Z,10.99
2017-05-03T23:29:14.088Z,10.94
2017-05-03T23:31:40.701Z,10.94
2017-05-03T23:34:07.073Z,10.71
2017-05-03T23:36:33.434Z,10.95
2017-05-03T23:38:59.814Z,10.75
2017-05-03T23:41:26.288Z,11.00
2017-05-03T23:43:52.654Z,11.15
2017-05-03T23:46:18.999Z,11.40
2017-05-03T23:48:45.345Z,11.21
2017-05-03T23:51:11.766Z,11.22
2017-05-03T23:53:38.103Z,11.29
2017-05-03T23:56:04.438Z,11.07
2017-05-03T23:58:30.791Z,10.71
